createdAt,value
2018-01-13T00:00:24.961Z,1026.77
2018-01-13T00:01:24.976Z,1026.74
2018-01-13T00:02:24.994Z,1026.73
2018-01-13T00:03:25.000Z,1026.75
2018-01-13T00:04:25.015Z,1026.72
2018-01-13T00:05:25.028Z,1026.72
2018-01-13T00:07:25.062Z,1026.72
2018-01-13T00:08:25.069Z,1026.73
2018-01-13T00:09:25.089Z,1026.81
2018-01-13T00:10:25.095Z,1026.71
2018-01-13T00:11:25.112Z,1026.73
2018-01-13T00:12:25.123Z,1026.69
2018-01-13T00:13:25.148Z,1026.66
2018-01-13T00:14:25.156Z,1026.72
2018-01-13T00:15:25.164Z,1026.64
2018-01-13T00:16:25.178Z,1026.71
2018-01-13T00:17:25.191Z,1026.74
2018-01-13T00:18:25.204Z,1026.73
2018-01-13T00:19:25.225Z,1026.74
2018-01-13T00:20:25.238Z,1026.7
2018-01-13T00:21:25.246Z,1026.69
2018-01-13T00:23:25.280Z,1026.76
2018-01-13T00:24:25.292Z,1026.78
2018-01-13T00:25:25.306Z,1026.73
2018-01-13T00:26:25.320Z,1026.72
2018-01-13T00:27:25.326Z,1026.7
2018-01-13T00:28:25.340Z,1026.72
2018-01-13T00:29:25.353Z,1026.74
2018-01-13T00:30:25.367Z,1026.79
2018-01-13T00:31:25.381Z,1026.78
2018-01-13T00:32:25.401Z,1026.81
2018-01-13T00:33:25.409Z,1026.8
2018-01-13T00:34:25.428Z,1026.81
2018-01-13T00:35:25.434Z,1026.86
2018-01-13T00:36:25.456Z,1026.87
2018-01-13T00:38:25.476Z,1026.85
2018-01-13T00:39:25.490Z,1026.81
2018-01-13T00:40:25.504Z,1026.85
2018-01-13T00:41:25.517Z,1026.87
2018-01-13T00:42:25.537Z,1026.83
2018-01-13T00:43:25.550Z,1026.83
2018-01-13T00:44:25.566Z,1026.86
2018-01-13T00:45:25.572Z,1026.9
2018-01-13T00:46:25.584Z,1026.89
2018-01-13T00:47:25.597Z,1026.95
2018-01-13T00:48:25.611Z,1026.94
2018-01-13T00:49:25.632Z,1026.94
2018-01-13T00:50:25.638Z,1026.96
2018-01-13T00:51:25.652Z,1026.96
2018-01-13T00:52:25.667Z,1026.96
2018-01-13T00:53:25.687Z,1026.97
2018-01-13T00:54:25.699Z,1026.98
2018-01-13T00:55:25.713Z,1027.04
2018-01-13T00:56:25.720Z,1026.91
2018-01-13T00:57:25.740Z,1026.97
2018-01-13T00:58:25.748Z,1026.95
2018-01-13T00:59:25.768Z,1027.02
2018-01-13T01:00:25.774Z,1026.98
2018-01-13T01:01:25.787Z,1027.04
2018-01-13T01:02:25.801Z,1027.02
2018-01-13T01:03:25.821Z,1027.03
2018-01-13T01:04:25.836Z,1027.06
2018-01-13T01:05:25.842Z,1027.06
2018-01-13T01:06:25.862Z,1027.04
2018-01-13T01:07:25.877Z,1027.07
2018-01-13T01:08:25.883Z,1027.02
2018-01-13T01:10:25.911Z,1027
2018-01-13T01:11:25.925Z,1027.05
2018-01-13T01:12:25.943Z,1027.04
2018-01-13T01:13:25.951Z,1027.07
2018-01-13T01:14:25.964Z,1027.05
2018-01-13T01:15:25.978Z,1027.05
2018-01-13T01:16:25.998Z,1027.04
2018-01-13T01:17:26.012Z,1027.01
2018-01-13T01:18:26.019Z,1027.01
2018-01-13T01:19:26.033Z,1027.1
2018-01-13T01:20:26.046Z,1027.05
2018-01-13T01:21:26.060Z,1027.08
2018-01-13T01:22:26.074Z,1027.12
2018-01-13T01:23:26.086Z,1027.09
2018-01-13T01:24:26.100Z,1027.08
2018-01-13T01:26:26.135Z,1027.07
2018-01-13T01:27:26.146Z,1027.12
2018-01-13T01:28:26.160Z,1027.08
2018-01-13T01:29:26.174Z,1027.12
2018-01-13T01:30:26.184Z,1027.1
2018-01-13T01:31:26.201Z,1027.11
2018-01-13T01:32:26.208Z,1027.11
2018-01-13T01:33:26.222Z,1027.1
2018-01-13T01:34:26.236Z,1027.09
2018-01-13T01:35:26.249Z,1027.09
2018-01-13T01:36:26.263Z,1027.09
2018-01-13T01:37:26.276Z,1027.11
2018-01-13T01:38:26.290Z,1027.06
2018-01-13T01:39:26.303Z,1027.12
2018-01-13T01:40:26.317Z,1027.1
2018-01-13T01:42:26.344Z,1027.08
2018-01-13T01:43:26.357Z,1027.1
2018-01-13T01:44:26.377Z,1027.13
2018-01-13T01:45:26.383Z,1027.1
2018-01-13T01:46:26.404Z,1027.13
2018-01-13T01:47:26.411Z,1027.11
2018-01-13T01:48:26.424Z,1027.16
2018-01-13T01:49:26.444Z,1027.16
2018-01-13T01:50:26.452Z,1027.17
2018-01-13T01:51:26.466Z,1027.15
2018-01-13T01:52:26.487Z,1027.19
2018-01-13T01:53:26.491Z,1027.16
2018-01-13T01:54:26.511Z,1027.16
2018-01-13T01:55:26.526Z,1027.21
2018-01-13T01:56:26.538Z,1027.16
2018-01-13T01:58:26.559Z,1027.21
2018-01-13T01:59:26.574Z,1027.18
2018-01-13T02:00:26.592Z,1027.21
2018-01-13T02:01:26.606Z,1027.18
2018-01-13T02:02:26.620Z,1027.17
2018-01-13T02:03:26.633Z,1027.11
2018-01-13T02:04:26.639Z,1027.12
2018-01-13T02:05:26.654Z,1027.15
2018-01-13T02:06:26.667Z,1027.11
2018-01-13T02:07:26.686Z,1027.16
2018-01-13T02:08:26.701Z,1027.14
2018-01-13T02:09:26.707Z,1027.12
2018-01-13T02:10:26.726Z,1027.1
2018-01-13T02:11:26.734Z,1027.11
2018-01-13T02:13:26.761Z,1027.13
2018-01-13T02:14:26.774Z,1027.13
2018-01-13T02:15:26.794Z,1027.12
2018-01-13T02:16:26.804Z,1027.11
2018-01-13T02:17:26.822Z,1027.13
2018-01-13T02:18:26.835Z,1027.12
2018-01-13T02:19:26.848Z,1027.07
2018-01-13T02:20:26.901Z,1027.1
2018-01-13T02:21:26.878Z,1027.1
2018-01-13T02:22:26.882Z,1027.09
2018-01-13T02:23:26.897Z,1027.02
2018-01-13T02:24:26.917Z,1027.06
2018-01-13T02:25:26.922Z,1027.1
2018-01-13T02:26:26.943Z,1027.07
2018-01-13T02:27:26.949Z,1027.09
2018-01-13T02:28:26.970Z,1027.08
2018-01-13T02:29:26.976Z,1027.1
2018-01-13T02:30:26.997Z,1027.05
2018-01-13T02:31:27.004Z,1027.06
2018-01-13T02:32:27.017Z,1027.03
2018-01-13T02:33:27.030Z,1027.05
2018-01-13T02:34:27.050Z,1027.05
2018-01-13T02:35:27.058Z,1027
2018-01-13T02:36:27.071Z,1027
2018-01-13T02:37:27.085Z,1027.01
2018-01-13T02:38:27.105Z,1027
2018-01-13T02:39:27.119Z,1027.02
2018-01-13T02:40:27.124Z,1027.01
2018-01-13T02:41:27.239Z,1027.03
2018-01-13T02:42:27.152Z,1027.05
2018-01-13T02:43:27.164Z,1027.04
2018-01-13T02:45:27.192Z,1027.13
2018-01-13T02:46:27.212Z,1027.07
2018-01-13T02:47:27.224Z,1027.06
2018-01-13T02:48:27.237Z,1027.03
2018-01-13T02:49:27.251Z,1027.1
2018-01-13T02:50:27.260Z,1027.1
2018-01-13T02:51:27.277Z,1027.08
2018-01-13T02:52:27.285Z,1027.07
2018-01-13T02:53:27.306Z,1027.06
2018-01-13T02:54:27.321Z,1027.04
2018-01-13T02:55:27.332Z,1027.04
2018-01-13T02:56:27.338Z,1027.02
2018-01-13T02:57:27.352Z,1027.05
2018-01-13T02:58:27.366Z,1027.04
2018-01-13T02:59:27.384Z,1027.04
2018-01-13T03:01:27.406Z,1027.03
2018-01-13T03:02:27.418Z,1027.05
2018-01-13T03:03:27.439Z,1027.05
2018-01-13T03:04:27.445Z,1027.03
2018-01-13T03:05:27.457Z,1027.03
2018-01-13T03:06:27.471Z,1027.02
2018-01-13T03:07:27.492Z,1027.12
2018-01-13T03:08:27.499Z,1027.03
2018-01-13T03:09:27.519Z,1026.98
2018-01-13T03:10:27.525Z,1026.98
2018-01-13T03:11:27.540Z,1027.03
2018-01-13T03:12:27.558Z,1026.98
2018-01-13T03:13:27.571Z,1026.97
2018-01-13T03:14:27.578Z,1026.97
2018-01-13T03:15:27.598Z,1027.04
2018-01-13T03:17:27.619Z,1027.01
2018-01-13T03:18:27.636Z,1027.03
2018-01-13T03:19:27.654Z,1026.96
2018-01-13T03:20:27.665Z,1027.02
2018-01-13T03:21:27.682Z,1026.99
2018-01-13T03:22:27.686Z,1026.98
2018-01-13T03:23:27.704Z,1027.04
2018-01-13T03:24:27.712Z,1027.04
2018-01-13T03:25:27.733Z,1027
2018-01-13T03:26:27.738Z,1026.97
2018-01-13T03:27:27.752Z,1027.01
2018-01-13T03:28:27.765Z,1027.02
2018-01-13T03:29:27.784Z,1027.02
2018-01-13T03:30:27.799Z,1026.97
2018-01-13T03:31:27.848Z,1026.99
2018-01-13T03:33:27.831Z,1027.08
2018-01-13T03:34:27.851Z,1026.98
2018-01-13T03:35:27.860Z,1026.99
2018-01-13T03:36:27.878Z,1027.03
2018-01-13T03:37:27.884Z,1027
2018-01-13T03:38:27.898Z,1027
2018-01-13T03:39:28.012Z,1026.98
2018-01-13T03:40:27.931Z,1026.96
2018-01-13T03:41:27.938Z,1027.01
2018-01-13T03:42:27.957Z,1027.05
2018-01-13T03:43:27.971Z,1026.96
2018-01-13T03:44:27.983Z,1027
2018-01-13T03:45:27.991Z,1026.95
2018-01-13T03:46:28.005Z,1027.02
2018-01-13T03:48:28.039Z,1026.94
2018-01-13T03:49:28.053Z,1027.01
2018-01-13T03:50:28.065Z,1026.99
2018-01-13T03:51:28.072Z,1026.99
2018-01-13T03:52:28.085Z,1027
2018-01-13T03:53:28.099Z,1026.93
2018-01-13T03:54:28.158Z,1026.97
2018-01-13T03:55:28.124Z,1027
2018-01-13T03:56:28.139Z,1026.94
2018-01-13T03:57:28.152Z,1026.98
2018-01-13T03:58:28.173Z,1026.95
2018-01-13T03:59:28.178Z,1026.94
2018-01-13T04:00:28.192Z,1026.97
2018-01-13T04:01:28.204Z,1026.93
2018-01-13T04:02:28.225Z,1026.9
2018-01-13T04:03:28.238Z,1026.9
2018-01-13T04:04:28.244Z,1026.94
2018-01-13T04:05:28.257Z,1026.95
2018-01-13T04:06:28.278Z,1026.96
2018-01-13T04:07:28.285Z,1026.96
2018-01-13T04:08:28.297Z,1026.92
2018-01-13T04:09:28.311Z,1026.94
2018-01-13T04:10:28.326Z,1026.9
2018-01-13T04:11:28.337Z,1026.91
2018-01-13T04:12:28.351Z,1026.94
2018-01-13T04:13:28.372Z,1026.93
2018-01-13T04:14:28.385Z,1026.99
2018-01-13T04:15:28.391Z,1026.97
2018-01-13T04:16:28.404Z,1026.99
2018-01-13T04:17:28.424Z,1026.95
2018-01-13T04:18:28.431Z,1026.98
2018-01-13T04:20:28.457Z,1026.92
2018-01-13T04:21:28.478Z,1026.91
2018-01-13T04:22:28.491Z,1026.92
2018-01-13T04:23:28.504Z,1026.95
2018-01-13T04:24:28.511Z,1026.96
2018-01-13T04:25:28.532Z,1026.85
2018-01-13T04:26:28.537Z,1026.9
2018-01-13T04:27:28.551Z,1026.87
2018-01-13T04:28:28.571Z,1026.87
2018-01-13T04:29:28.584Z,1026.92
2018-01-13T04:30:28.590Z,1026.88
2018-01-13T04:31:28.605Z,1026.88
2018-01-13T04:32:28.625Z,1026.88
2018-01-13T04:33:28.631Z,1026.94
2018-01-13T04:34:28.643Z,1026.9
2018-01-13T04:36:28.678Z,1026.87
2018-01-13T04:37:28.683Z,1026.85
2018-01-13T04:38:28.698Z,1026.84
2018-01-13T04:39:28.710Z,1026.87
2018-01-13T04:40:28.723Z,1026.84
2018-01-13T04:41:28.736Z,1026.9
2018-01-13T04:42:28.757Z,1026.93
2018-01-13T04:43:28.764Z,1026.92
2018-01-13T04:44:28.783Z,1026.89
2018-01-13T04:45:28.790Z,1026.91
2018-01-13T04:46:28.804Z,1026.87
2018-01-13T04:47:28.825Z,1026.88
2018-01-13T04:48:28.837Z,1026.88
2018-01-13T04:49:28.844Z,1026.88
2018-01-13T04:50:28.868Z,1026.88
2018-01-13T04:52:28.891Z,1026.88
2018-01-13T04:53:28.904Z,1026.91
2018-01-13T04:54:28.911Z,1026.94
2018-01-13T04:55:28.929Z,1026.9
2018-01-13T04:56:28.938Z,1026.95
2018-01-13T04:57:28.949Z,1026.95
2018-01-13T04:58:28.963Z,1026.91
2018-01-13T04:59:28.977Z,1026.86
2018-01-13T05:00:28.990Z,1026.95
2018-01-13T05:01:29.003Z,1026.95
2018-01-13T05:02:29.016Z,1026.97
2018-01-13T05:03:29.037Z,1026.91
2018-01-13T05:04:29.043Z,1027.04
2018-01-13T05:05:29.057Z,1027.04
2018-01-13T05:06:29.075Z,1027.04
2018-01-13T05:08:29.096Z,1027.04
2018-01-13T05:09:29.110Z,1027.01
2018-01-13T05:10:29.128Z,1027.06
2018-01-13T05:11:29.142Z,1027.04
2018-01-13T05:12:29.156Z,1027.09
2018-01-13T05:13:29.163Z,1027.11
2018-01-13T05:14:29.175Z,1027.09
2018-01-13T05:15:29.189Z,1027.12
2018-01-13T05:16:29.209Z,1027.07
2018-01-13T05:17:29.216Z,1027.1
2018-01-13T05:18:29.228Z,1027.15
2018-01-13T05:19:29.243Z,1027.1
2018-01-13T05:20:29.263Z,1027.05
2018-01-13T05:21:29.277Z,1027.09
2018-01-13T05:23:29.296Z,1027.1
2018-01-13T05:24:29.308Z,1027.08
2018-01-13T05:25:29.330Z,1027.08
2018-01-13T05:26:29.336Z,1027.12
2018-01-13T05:27:29.356Z,1027.07
2018-01-13T05:28:29.368Z,1027.06
2018-01-13T05:29:29.383Z,1027.05
2018-01-13T05:30:29.390Z,1027.09
2018-01-13T05:31:29.410Z,1027.02
2018-01-13T05:32:29.422Z,1027.02
2018-01-13T05:33:29.429Z,1027.11
2018-01-13T05:34:29.451Z,1027.02
2018-01-13T05:35:29.456Z,1027.09
2018-01-13T05:36:29.467Z,1027.11
2018-01-13T05:37:29.499Z,1027.05
2018-01-13T05:38:29.495Z,1027.04
2018-01-13T05:39:29.513Z,1027.09
2018-01-13T05:40:29.521Z,1027.08
2018-01-13T05:41:29.534Z,1027.12
2018-01-13T05:42:29.550Z,1027.05
2018-01-13T05:43:29.560Z,1027.09
2018-01-13T05:44:29.575Z,1027.11
2018-01-13T05:45:29.594Z,1027.11
2018-01-13T05:46:29.599Z,1027.11
2018-01-13T05:47:29.615Z,1027.1
2018-01-13T05:48:29.626Z,1027.1
2018-01-13T05:49:29.647Z,1027.12
2018-01-13T05:50:29.659Z,1027.08
2018-01-13T05:51:29.665Z,1027.1
2018-01-13T05:52:29.680Z,1027.08
2018-01-13T05:53:29.692Z,1027.07
2018-01-13T05:55:29.725Z,1027.12
2018-01-13T05:56:29.739Z,1027.13
2018-01-13T05:57:29.744Z,1027.15
2018-01-13T05:58:29.765Z,1027.12
2018-01-13T05:59:29.773Z,1027.13
2018-01-13T06:00:29.884Z,1027.13
2018-01-13T06:01:29.798Z,1027.18
2018-01-13T06:02:29.817Z,1027.1
2018-01-13T06:03:29.824Z,1027.16
2018-01-13T06:04:29.837Z,1027.1
2018-01-13T06:05:29.851Z,1027.11
2018-01-13T06:06:29.890Z,1027.09
2018-01-13T06:07:29.877Z,1027.13
2018-01-13T06:08:29.893Z,1027.07
2018-01-13T06:09:29.904Z,1027.07
2018-01-13T06:11:30.031Z,1027.07
2018-01-13T06:12:29.951Z,1027.06
2018-01-13T06:13:29.964Z,1027.11
2018-01-13T06:14:29.970Z,1027.09
2018-01-13T06:15:29.989Z,1027.12
2018-01-13T06:16:29.996Z,1027.1
2018-01-13T06:17:30.010Z,1027.06
2018-01-13T06:18:30.031Z,1027.12
2018-01-13T06:19:30.043Z,1027.13
2018-01-13T06:20:30.062Z,1027.13
2018-01-13T06:21:30.064Z,1027.09
2018-01-13T06:22:30.076Z,1027.12
2018-01-13T06:23:30.090Z,1027.13
2018-01-13T06:24:30.110Z,1027.11
2018-01-13T06:25:30.116Z,1027.1
2018-01-13T06:27:30.142Z,1027.05
2018-01-13T06:28:30.158Z,1027.08
2018-01-13T06:29:30.176Z,1027.05
2018-01-13T06:30:30.189Z,1027.05
2018-01-13T06:31:30.195Z,1027.05
2018-01-13T06:32:30.210Z,1027.06
2018-01-13T06:33:30.223Z,1027.1
2018-01-13T06:34:30.242Z,1027.02
2018-01-13T06:35:30.256Z,1027.04
2018-01-13T06:36:30.269Z,1027.01
2018-01-13T06:37:30.275Z,1027.03
2018-01-13T06:38:30.289Z,1027.03
2018-01-13T06:39:30.303Z,1027.07
2018-01-13T06:40:30.322Z,1027.07
2018-01-13T06:41:30.328Z,1027.08
2018-01-13T06:43:30.361Z,1027.08
2018-01-13T06:44:30.369Z,1027.1
2018-01-13T06:45:30.382Z,1027.03
2018-01-13T06:46:30.402Z,1027.06
2018-01-13T06:47:30.416Z,1027.06
2018-01-13T06:48:30.421Z,1027.12
2018-01-13T06:49:30.446Z,1027.1
2018-01-13T06:50:30.449Z,1027.1
2018-01-13T06:51:30.468Z,1027.13
2018-01-13T06:52:30.487Z,1027.11
2018-01-13T06:53:30.492Z,1027.12
2018-01-13T06:54:30.509Z,1027.12
2018-01-13T06:55:30.524Z,1027.19
2018-01-13T06:56:30.528Z,1027.17
2018-01-13T06:58:30.555Z,1027.2
2018-01-13T06:59:30.568Z,1027.21
2018-01-13T07:00:30.582Z,1027.22
2018-01-13T07:01:30.596Z,1027.2
2018-01-13T07:02:30.618Z,1027.27
2018-01-13T07:03:30.628Z,1027.28
2018-01-13T07:04:30.635Z,1027.21
2018-01-13T07:05:30.656Z,1027.29
2018-01-13T07:06:30.662Z,1027.25
2018-01-13T07:07:30.681Z,1027.18
2018-01-13T07:08:30.689Z,1027.25
2018-01-13T07:09:30.701Z,1027.29
2018-01-13T07:10:30.714Z,1027.25
2018-01-13T07:11:30.726Z,1027.3
2018-01-13T07:12:30.740Z,1027.34
2018-01-13T07:13:30.754Z,1027.32
2018-01-13T07:14:30.767Z,1027.35
2018-01-13T07:15:30.780Z,1027.33
2018-01-13T07:16:30.800Z,1027.33
2018-01-13T07:17:30.806Z,1027.43
2018-01-13T07:18:30.819Z,1027.32
2018-01-13T07:19:30.840Z,1027.3
2018-01-13T07:20:30.854Z,1027.31
2018-01-13T07:21:30.859Z,1027.31
2018-01-13T07:22:30.879Z,1027.29
2018-01-13T07:23:30.893Z,1027.3
2018-01-13T07:24:30.905Z,1027.33
2018-01-13T07:25:30.947Z,1027.34
2018-01-13T07:26:30.926Z,1027.37
2018-01-13T07:27:30.945Z,1027.39
2018-01-13T07:28:30.958Z,1027.35
2018-01-13T07:30:30.989Z,1027.4
2018-01-13T07:31:30.998Z,1027.43
2018-01-13T07:32:31.004Z,1027.33
2018-01-13T07:33:31.023Z,1027.37
2018-01-13T07:34:31.035Z,1027.35
2018-01-13T07:35:31.044Z,1027.32
2018-01-13T07:36:31.055Z,1027.36
2018-01-13T07:37:31.075Z,1027.36
2018-01-13T07:38:31.090Z,1027.29
2018-01-13T07:39:31.102Z,1027.38
2018-01-13T07:40:31.108Z,1027.38
2018-01-13T07:41:31.129Z,1027.4
2018-01-13T07:42:31.135Z,1027.39
2018-01-13T07:43:31.155Z,1027.41
2018-01-13T07:44:31.164Z,1027.4
2018-01-13T07:46:31.195Z,1027.31
2018-01-13T07:47:31.207Z,1027.35
2018-01-13T07:48:31.213Z,1027.42
2018-01-13T07:49:31.235Z,1027.31
2018-01-13T07:50:31.239Z,1027.35
2018-01-13T07:51:31.259Z,1027.36
2018-01-13T07:52:31.268Z,1027.4
2018-01-13T07:53:31.279Z,1027.33
2018-01-13T07:54:31.299Z,1027.35
2018-01-13T07:55:31.305Z,1027.41
2018-01-13T07:56:31.326Z,1027.34
2018-01-13T07:57:31.332Z,1027.29
2018-01-13T07:58:31.346Z,1027.34
2018-01-13T07:59:31.359Z,1027.31
2018-01-13T08:00:31.372Z,1027.3
2018-01-13T08:02:31.402Z,1027.32
2018-01-13T08:03:31.470Z,1027.31
2018-01-13T08:04:31.425Z,1027.34
2018-01-13T08:05:31.438Z,1027.37
2018-01-13T08:06:31.457Z,1027.33
2018-01-13T08:07:31.464Z,1027.36
2018-01-13T08:08:31.485Z,1027.32
2018-01-13T08:09:31.491Z,1027.37
2018-01-13T08:10:31.503Z,1027.35
2018-01-13T08:11:31.573Z,1027.4
2018-01-13T08:12:31.536Z,1027.41
2018-01-13T08:13:31.543Z,1027.47
2018-01-13T08:14:31.563Z,1027.42
2018-01-13T08:15:31.570Z,1027.46
2018-01-13T08:16:31.581Z,1027.47
2018-01-13T08:18:31.611Z,1027.44
2018-01-13T08:19:31.623Z,1027.45
2018-01-13T08:20:31.641Z,1027.44
2018-01-13T08:21:31.654Z,1027.46
2018-01-13T08:22:31.662Z,1027.5
2018-01-13T08:23:31.681Z,1027.49
2018-01-13T08:24:31.694Z,1027.47
2018-01-13T08:25:31.701Z,1027.53
2018-01-13T08:26:31.714Z,1027.45
2018-01-13T08:27:31.727Z,1027.48
2018-01-13T08:28:31.740Z,1027.46
2018-01-13T08:29:31.754Z,1027.52
2018-01-13T08:30:31.768Z,1027.52
2018-01-13T08:31:31.787Z,1027.48
2018-01-13T08:33:31.807Z,1027.52
2018-01-13T08:34:31.825Z,1027.56
2018-01-13T08:35:31.832Z,1027.57
2018-01-13T08:36:31.846Z,1027.61
2018-01-13T08:37:31.860Z,1027.6
2018-01-13T08:38:31.879Z,1027.63
2018-01-13T08:39:31.885Z,1027.58
2018-01-13T08:40:31.899Z,1027.56
2018-01-13T08:41:31.913Z,1027.63
2018-01-13T08:42:31.924Z,1027.61
2018-01-13T08:43:31.939Z,1027.65
2018-01-13T08:44:31.958Z,1027.66
2018-01-13T08:45:31.970Z,1027.59
2018-01-13T08:46:31.984Z,1027.67
2018-01-13T08:47:31.992Z,1027.67
2018-01-13T08:48:32.005Z,1027.65
2018-01-13T08:49:32.017Z,1027.72
2018-01-13T08:50:32.038Z,1027.62
2018-01-13T08:51:32.044Z,1027.73
2018-01-13T08:52:32.064Z,1027.75
2018-01-13T08:53:32.076Z,1027.66
2018-01-13T08:54:32.083Z,1027.78
2018-01-13T08:55:32.109Z,1027.71
2018-01-13T08:56:32.116Z,1027.73
2018-01-13T08:57:32.130Z,1027.8
2018-01-13T08:58:32.143Z,1027.62
2018-01-13T08:59:32.155Z,1027.83
2018-01-13T09:00:32.169Z,1027.75
2018-01-13T09:01:32.182Z,1027.73
2018-01-13T09:02:32.196Z,1027.71
2018-01-13T09:03:32.202Z,1027.76
2018-01-13T09:05:32.235Z,1027.73
2018-01-13T09:06:32.290Z,1027.75
2018-01-13T09:07:32.254Z,1027.74
2018-01-13T09:08:32.268Z,1027.76
2018-01-13T09:09:32.289Z,1027.8
2018-01-13T09:10:32.304Z,1027.75
2018-01-13T09:11:32.314Z,1027.8
2018-01-13T09:12:32.329Z,1027.82
2018-01-13T09:13:32.335Z,1027.9
2018-01-13T09:14:32.347Z,1027.93
2018-01-13T09:15:32.371Z,1027.85
2018-01-13T09:16:32.382Z,1027.9
2018-01-13T09:17:32.396Z,1027.91
2018-01-13T09:18:32.409Z,1027.88
2018-01-13T09:19:32.415Z,1027.87
2018-01-13T09:21:32.449Z,1027.85
2018-01-13T09:22:32.462Z,1027.88
2018-01-13T09:23:32.468Z,1027.89
2018-01-13T09:24:32.481Z,1027.88
2018-01-13T09:25:32.495Z,1027.97
2018-01-13T09:26:32.508Z,1027.93
2018-01-13T09:27:32.521Z,1027.92
2018-01-13T09:28:32.542Z,1027.95
2018-01-13T09:29:32.548Z,1027.89
2018-01-13T09:30:32.562Z,1027.96
2018-01-13T09:31:32.575Z,1027.95
2018-01-13T09:32:32.600Z,1027.93
2018-01-13T09:33:32.609Z,1027.94
2018-01-13T09:34:32.623Z,1027.96
2018-01-13T09:35:32.629Z,1027.98
2018-01-13T09:37:32.663Z,1027.93
2018-01-13T09:38:32.671Z,1027.95
2018-01-13T09:39:32.691Z,1027.99
2018-01-13T09:40:32.706Z,1027.94
2018-01-13T09:41:32.717Z,1027.92
2018-01-13T09:42:32.730Z,1027.9
2018-01-13T09:43:32.738Z,1027.93
2018-01-13T09:44:32.751Z,1027.97
2018-01-13T09:45:32.766Z,1027.91
2018-01-13T09:46:32.813Z,1027.9
2018-01-13T09:47:32.798Z,1027.97
2018-01-13T09:48:32.808Z,1027.93
2018-01-13T09:49:32.827Z,1027.94
2018-01-13T09:50:32.835Z,1027.97
2018-01-13T09:51:32.854Z,1027.97
2018-01-13T09:53:32.877Z,1027.96
2018-01-13T09:54:32.890Z,1027.93
2018-01-13T09:55:32.910Z,1028.01
2018-01-13T09:56:32.923Z,1027.98
2018-01-13T09:57:32.938Z,1027.95
2018-01-13T09:58:32.944Z,1028
2018-01-13T09:59:32.965Z,1028.03
2018-01-13T10:00:32.972Z,1028.01
2018-01-13T10:01:32.986Z,1027.97
2018-01-13T10:02:32.999Z,1027.95
2018-01-13T10:03:33.024Z,1027.93
2018-01-13T10:04:33.027Z,1027.95
2018-01-13T10:05:33.047Z,1027.92
2018-01-13T10:06:33.055Z,1027.94
2018-01-13T10:08:33.090Z,1027.86
2018-01-13T10:09:33.096Z,1027.93
2018-01-13T10:10:33.117Z,1027.93
2018-01-13T10:11:33.130Z,1027.91
2018-01-13T10:12:33.138Z,1027.88
2018-01-13T10:13:33.155Z,1027.91
2018-01-13T10:14:33.165Z,1027.94
2018-01-13T10:15:33.179Z,1027.87
2018-01-13T10:16:33.199Z,1027.82
2018-01-13T10:17:33.214Z,1027.88
2018-01-13T10:18:33.220Z,1027.86
2018-01-13T10:19:33.242Z,1027.8
2018-01-13T10:20:33.253Z,1027.76
2018-01-13T10:21:33.261Z,1027.8
2018-01-13T10:22:33.285Z,1027.89
2018-01-13T10:23:33.290Z,1027.82
2018-01-13T10:24:33.309Z,1027.84
2018-01-13T10:25:33.317Z,1027.87
2018-01-13T10:26:33.331Z,1027.84
2018-01-13T10:27:33.352Z,1027.88
2018-01-13T10:28:33.364Z,1027.88
2018-01-13T10:29:33.379Z,1027.87
2018-01-13T10:30:33.393Z,1027.82
2018-01-13T10:31:33.399Z,1027.85
2018-01-13T10:32:33.443Z,1027.77
2018-01-13T10:33:33.427Z,1027.78
2018-01-13T10:34:33.441Z,1027.8
2018-01-13T10:35:33.453Z,1027.75
2018-01-13T10:36:33.575Z,1027.76
2018-01-13T10:37:33.481Z,1027.72
2018-01-13T10:38:33.501Z,1027.74
2018-01-13T10:40:33.522Z,1027.71
2018-01-13T10:41:33.543Z,1027.7
2018-01-13T10:42:33.549Z,1027.67
2018-01-13T10:43:33.562Z,1027.72
2018-01-13T10:44:33.582Z,1027.72
2018-01-13T10:45:33.596Z,1027.71
2018-01-13T10:46:33.603Z,1027.73
2018-01-13T10:47:33.623Z,1027.66
2018-01-13T10:48:33.637Z,1027.66
2018-01-13T10:49:33.642Z,1027.68
2018-01-13T10:50:33.664Z,1027.71
2018-01-13T10:51:33.673Z,1027.68
2018-01-13T10:52:33.682Z,1027.69
2018-01-13T10:53:33.695Z,1027.66
2018-01-13T10:54:33.711Z,1027.67
2018-01-13T10:56:33.736Z,1027.65
2018-01-13T10:57:33.755Z,1027.7
2018-01-13T10:58:33.762Z,1027.7
2018-01-13T10:59:33.777Z,1027.65
2018-01-13T11:00:33.796Z,1027.63
2018-01-13T11:01:33.804Z,1027.6
2018-01-13T11:02:33.816Z,1027.61
2018-01-13T11:03:33.837Z,1027.62
2018-01-13T11:04:33.842Z,1027.61
2018-01-13T11:05:33.863Z,1027.58
2018-01-13T11:06:33.878Z,1027.61
2018-01-13T11:07:33.890Z,1027.6
2018-01-13T11:08:33.906Z,1027.54
2018-01-13T11:09:33.909Z,1027.56
2018-01-13T11:10:33.922Z,1027.58
2018-01-13T11:12:33.956Z,1027.58
2018-01-13T11:13:33.969Z,1027.52
2018-01-13T11:14:33.976Z,1027.47
2018-01-13T11:15:33.989Z,1027.51
2018-01-13T11:16:34.004Z,1027.48
2018-01-13T11:17:34.023Z,1027.47
2018-01-13T11:18:34.036Z,1027.47
2018-01-13T11:19:34.042Z,1027.51
2018-01-13T11:20:34.056Z,1027.45
2018-01-13T11:21:34.072Z,1027.41
2018-01-13T11:22:34.089Z,1027.48
2018-01-13T11:23:34.103Z,1027.44
2018-01-13T11:24:34.115Z,1027.43
2018-01-13T11:25:34.130Z,1027.39
2018-01-13T11:26:34.136Z,1027.43
2018-01-13T11:28:34.163Z,1027.38
2018-01-13T11:29:34.183Z,1027.35
2018-01-13T11:30:34.196Z,1027.39
2018-01-13T11:31:34.202Z,1027.4
2018-01-13T11:32:34.216Z,1027.39
2018-01-13T11:33:34.235Z,1027.42
2018-01-13T11:34:34.243Z,1027.35
2018-01-13T11:35:34.264Z,1027.5
2018-01-13T11:36:34.269Z,1027.4
2018-01-13T11:37:34.289Z,1027.37
2018-01-13T11:38:34.301Z,1027.34
2018-01-13T11:39:34.316Z,1027.33
2018-01-13T11:40:34.323Z,1027.29
2018-01-13T11:41:34.335Z,1027.28
2018-01-13T11:43:34.366Z,1027.29
2018-01-13T11:44:34.382Z,1027.27
2018-01-13T11:45:34.388Z,1027.32
2018-01-13T11:46:34.403Z,1027.25
2018-01-13T11:47:34.417Z,1027.32
2018-01-13T11:48:34.428Z,1027.26
2018-01-13T11:49:34.444Z,1027.26
2018-01-13T11:50:34.456Z,1027.28
2018-01-13T11:51:34.475Z,1027.26
2018-01-13T11:52:34.481Z,1027.24
2018-01-13T11:53:34.495Z,1027.28
2018-01-13T11:54:34.509Z,1027.27
2018-01-13T11:55:34.522Z,1027.32
2018-01-13T11:56:34.541Z,1027.23
2018-01-13T11:57:34.549Z,1027.22
2018-01-13T11:58:34.564Z,1027.25
2018-01-13T11:59:34.574Z,1027.24
2018-01-13T12:00:34.587Z,1027.18
2018-01-13T12:01:34.602Z,1027.27
2018-01-13T12:02:34.615Z,1027.23
2018-01-13T12:03:34.627Z,1027.27
2018-01-13T12:04:34.654Z,1027.21
2018-01-13T12:05:34.654Z,1027.22
2018-01-13T12:06:34.674Z,1027.24
2018-01-13T12:07:34.681Z,1027.21
2018-01-13T12:08:34.695Z,1027.16
2018-01-13T12:09:34.709Z,1027.24
2018-01-13T12:10:34.719Z,1027.2
2018-01-13T12:11:34.734Z,1027.23
2018-01-13T12:12:34.746Z,1027.26
2018-01-13T12:13:34.759Z,1027.31
2018-01-13T12:15:34.786Z,1027.29
2018-01-13T12:16:34.800Z,1027.28
2018-01-13T12:17:34.819Z,1027.28
2018-01-13T12:18:34.827Z,1027.19
2018-01-13T12:19:34.839Z,1027.27
2018-01-13T12:20:34.852Z,1027.24
2018-01-13T12:21:34.871Z,1027.23
2018-01-13T12:22:34.880Z,1027.25
2018-01-13T12:23:34.893Z,1027.2
2018-01-13T12:24:34.911Z,1027.23
2018-01-13T12:25:34.919Z,1027.13
2018-01-13T12:26:34.939Z,1027.19
2018-01-13T12:27:34.944Z,1027.28
2018-01-13T12:28:34.957Z,1027.21
2018-01-13T12:29:34.977Z,1027.17
2018-01-13T12:31:34.997Z,1027.13
2018-01-13T12:32:35.017Z,1027.15
2018-01-13T12:33:35.023Z,1027.16
2018-01-13T12:34:35.036Z,1027.12
2018-01-13T12:35:35.048Z,1027.15
2018-01-13T12:36:35.069Z,1027.15
2018-01-13T12:37:35.081Z,1027.11
2018-01-13T12:38:35.088Z,1027.07
2018-01-13T12:39:35.101Z,1027.1
2018-01-13T12:40:35.122Z,1027.11
2018-01-13T12:41:35.128Z,1027.14
2018-01-13T12:42:35.141Z,1027.13
2018-01-13T12:43:35.160Z,1027.1
2018-01-13T12:44:35.167Z,1027.17
2018-01-13T12:45:35.180Z,1027.16
2018-01-13T12:47:35.209Z,1027.09
2018-01-13T12:48:35.220Z,1027.08
2018-01-13T12:49:35.234Z,1027.02
2018-01-13T12:50:35.246Z,1027.01